createdAt,value
2018-06-30T00:01:43.451Z,1.40
2018-06-30T00:04:11.624Z,1.03
2018-06-30T00:06:39.792Z,1.40
2018-06-30T00:09:08.918Z,1.40
2018-06-30T00:11:37.306Z,1.60
2018-06-30T00:14:05.464Z,1.30
2018-06-30T00:16:33.628Z,1.50
2018-06-30T00:19:01.784Z,1.60
2018-06-30T00:21:29.929Z,1.20
2018-06-30T00:23:58.103Z,1.53
2018-06-30T00:26:26.270Z,1.13
2018-06-30T00:28:54.991Z,1.77
2018-06-30T00:31:23.138Z,1.37
2018-06-30T00:33:51.293Z,1.40
2018-06-30T00:36:19.563Z,1.30
2018-06-30T00:38:47.734Z,2.00
2018-06-30T00:41:15.889Z,1.57
2018-06-30T00:43:44.059Z,1.60
2018-06-30T00:46:12.224Z,1.47
2018-06-30T00:48:40.849Z,1.50
2018-06-30T00:51:08.896Z,1.67
2018-06-30T00:53:37.065Z,1.73
2018-06-30T00:56:05.328Z,1.50
2018-06-30T00:58:33.496Z,1.33
2018-06-30T01:01:01.660Z,1.77
2018-06-30T01:03:29.824Z,1.53
2018-06-30T01:05:57.976Z,1.60
2018-06-30T01:08:26.184Z,1.40
2018-06-30T01:10:54.337Z,1.63
2018-06-30T01:13:22.492Z,1.87
2018-06-30T01:15:50.649Z,1.87
2018-06-30T01:18:18.833Z,2.10
2018-06-30T01:20:46.993Z,2.73
2018-06-30T01:23:15.208Z,2.43
2018-06-30T01:25:43.358Z,2.40
2018-06-30T01:28:11.512Z,2.33
2018-06-30T01:30:39.663Z,2.40
2018-06-30T01:33:07.817Z,2.43
2018-06-30T01:35:35.963Z,2.40
2018-06-30T01:38:04.120Z,2.30
2018-06-30T01:40:32.272Z,2.50
2018-06-30T01:43:00.420Z,3.10
2018-06-30T01:45:28.581Z,2.33
2018-06-30T01:47:57.166Z,2.37
2018-06-30T01:50:25.319Z,2.23
2018-06-30T01:52:53.456Z,2.00
2018-06-30T01:55:21.612Z,1.97
2018-06-30T01:57:49.802Z,2.40
2018-06-30T02:00:17.960Z,1.60
2018-06-30T02:02:46.108Z,2.20
2018-06-30T02:05:14.738Z,1.80
2018-06-30T02:07:42.892Z,1.40
2018-06-30T02:10:11.056Z,1.60
2018-06-30T02:12:39.210Z,1.60
2018-06-30T02:15:07.381Z,2.80
2018-06-30T02:17:35.540Z,2.47
2018-06-30T02:20:04.107Z,2.20
2018-06-30T02:22:32.249Z,2.83
2018-06-30T02:25:00.416Z,2.30
2018-06-30T02:27:28.585Z,2.60
2018-06-30T02:29:56.735Z,2.10
2018-06-30T02:32:24.894Z,2.23
2018-06-30T02:34:53.055Z,2.43
2018-06-30T02:37:21.211Z,2.47
2018-06-30T02:39:49.370Z,3.60
2018-06-30T02:42:17.529Z,3.17
2018-06-30T02:44:45.714Z,3.13
2018-06-30T02:47:13.877Z,3.30
2018-06-30T02:49:42.037Z,2.53
2018-06-30T02:52:10.196Z,2.43
2018-06-30T02:54:38.349Z,2.20
2018-06-30T02:57:06.504Z,2.30
2018-06-30T02:59:34.687Z,2.73
2018-06-30T03:02:02.883Z,2.23
2018-06-30T03:04:31.036Z,2.07
2018-06-30T03:06:59.203Z,2.03
2018-06-30T03:09:27.403Z,2.50
2018-06-30T03:11:55.549Z,2.20
2018-06-30T03:14:23.727Z,3.47
2018-06-30T03:16:51.881Z,3.10
2018-06-30T03:19:20.049Z,2.97
2018-06-30T03:21:48.202Z,3.90
2018-06-30T03:24:16.436Z,2.80
2018-06-30T03:26:44.589Z,2.50
2018-06-30T03:29:12.771Z,2.20
2018-06-30T03:31:40.953Z,1.93
2018-06-30T03:34:09.108Z,2.47
2018-06-30T03:36:37.357Z,2.30
2018-06-30T03:39:07.477Z,3.40
2018-06-30T03:41:35.674Z,3.33
2018-06-30T03:44:03.997Z,3.00
2018-06-30T03:46:32.145Z,3.13
2018-06-30T03:49:00.285Z,3.47
2018-06-30T03:51:28.448Z,2.47
2018-06-30T03:53:56.713Z,2.33
2018-06-30T03:56:25.128Z,2.47
2018-06-30T03:58:53.709Z,2.93
2018-06-30T04:01:21.863Z,2.63
2018-06-30T04:03:50.007Z,2.40
2018-06-30T04:06:18.172Z,2.60
2018-06-30T04:08:46.318Z,2.63
2018-06-30T04:11:14.480Z,2.70
2018-06-30T04:13:42.642Z,3.33
2018-06-30T04:16:10.832Z,2.90
2018-06-30T04:18:38.989Z,3.00
2018-06-30T04:21:07.168Z,2.63
2018-06-30T04:23:35.320Z,2.50
2018-06-30T04:26:03.476Z,2.40
2018-06-30T04:28:31.624Z,2.50
2018-06-30T04:30:59.808Z,2.47
2018-06-30T04:33:27.964Z,2.20
2018-06-30T04:35:56.119Z,2.87
2018-06-30T04:38:24.277Z,2.47
2018-06-30T04:40:52.453Z,2.50
2018-06-30T04:43:20.623Z,2.60
2018-06-30T04:45:48.548Z,2.23
2018-06-30T04:48:16.865Z,2.40
2018-06-30T04:50:45.029Z,3.13
2018-06-30T04:53:13.160Z,2.80
2018-06-30T04:55:41.317Z,3.20
2018-06-30T04:58:09.496Z,4.60
2018-06-30T05:00:37.655Z,4.67
2018-06-30T05:03:05.996Z,4.30
2018-06-30T05:05:34.155Z,4.77
2018-06-30T05:08:02.324Z,5.40
2018-06-30T05:10:30.491Z,5.30
2018-06-30T05:12:58.734Z,8.47
2018-06-30T05:15:26.831Z,9.40
2018-06-30T05:17:54.974Z,8.90
2018-06-30T05:20:23.288Z,10.53
2018-06-30T05:22:51.449Z,10.83
2018-06-30T05:25:19.610Z,9.90
2018-06-30T05:27:47.770Z,10.10
2018-06-30T05:30:15.975Z,9.63
2018-06-30T05:32:44.121Z,9.37
2018-06-30T05:35:12.285Z,9.07
2018-06-30T05:37:40.437Z,8.87
2018-06-30T05:40:08.730Z,9.37
2018-06-30T05:42:36.889Z,9.33
2018-06-30T05:45:05.473Z,12.50
2018-06-30T05:47:33.635Z,13.33
2018-06-30T05:50:01.796Z,11.20
2018-06-30T05:52:30.127Z,11.77
2018-06-30T05:54:58.360Z,11.10
2018-06-30T05:57:26.940Z,11.47
2018-06-30T05:59:55.092Z,9.70
2018-06-30T06:02:23.265Z,9.20
2018-06-30T06:04:51.438Z,9.27
2018-06-30T06:07:19.607Z,10.37
2018-06-30T06:09:47.838Z,12.47
2018-06-30T06:12:15.904Z,9.73
2018-06-30T06:14:44.051Z,11.80
2018-06-30T06:17:12.275Z,10.33
2018-06-30T06:19:40.426Z,11.07
2018-06-30T06:22:08.580Z,11.00
2018-06-30T06:24:36.757Z,8.17
2018-06-30T06:27:04.946Z,10.93
2018-06-30T06:29:33.172Z,10.83
2018-06-30T06:32:01.618Z,10.20
2018-06-30T06:34:29.770Z,8.30
2018-06-30T06:36:57.946Z,9.90
2018-06-30T06:39:26.104Z,13.13
2018-06-30T06:41:54.307Z,15.10
2018-06-30T06:44:22.467Z,13.67
2018-06-30T06:46:50.628Z,11.43
2018-06-30T06:49:18.784Z,9.77
2018-06-30T06:51:46.941Z,10.10
2018-06-30T06:54:15.232Z,9.83
2018-06-30T06:56:43.387Z,10.93
2018-06-30T06:59:11.545Z,12.67
2018-06-30T07:01:39.713Z,16.30
2018-06-30T07:04:08.035Z,10.37
2018-06-30T07:06:36.235Z,10.00
2018-06-30T07:09:07.308Z,10.70
2018-06-30T07:11:35.597Z,10.43
2018-06-30T07:14:03.760Z,11.20
2018-06-30T07:16:32.207Z,8.40
2018-06-30T07:19:00.386Z,12.03
2018-06-30T07:21:28.556Z,12.30
2018-06-30T07:23:56.717Z,9.00
2018-06-30T07:26:24.980Z,8.93
2018-06-30T07:28:53.176Z,9.93
2018-06-30T07:31:21.355Z,9.97
2018-06-30T07:33:49.508Z,9.23
2018-06-30T07:36:17.660Z,12.43
2018-06-30T07:38:45.821Z,11.83
2018-06-30T07:41:14.188Z,11.23
2018-06-30T07:43:42.420Z,10.00
2018-06-30T07:46:10.584Z,12.53
2018-06-30T07:48:38.753Z,11.03
2018-06-30T07:51:06.667Z,8.93
2018-06-30T07:53:34.852Z,11.20
2018-06-30T07:56:03.111Z,8.93
2018-06-30T07:58:31.269Z,10.83
2018-06-30T08:00:59.425Z,9.37
2018-06-30T08:03:27.608Z,10.70
2018-06-30T08:05:55.786Z,10.80
2018-06-30T08:08:24.016Z,9.73
2018-06-30T08:10:52.718Z,9.80
2018-06-30T08:13:22.231Z,10.87
2018-06-30T08:15:50.400Z,10.20
2018-06-30T08:18:18.565Z,10.23
2018-06-30T08:20:46.716Z,9.40
2018-06-30T08:23:14.868Z,9.23
2018-06-30T08:25:43.024Z,10.83
2018-06-30T08:28:11.243Z,11.30
2018-06-30T08:30:39.573Z,10.87
2018-06-30T08:33:08.070Z,11.20
2018-06-30T08:35:36.612Z,9.87
2018-06-30T08:38:04.959Z,8.77
2018-06-30T08:40:33.562Z,9.83
2018-06-30T08:43:02.015Z,12.10
2018-06-30T08:45:30.612Z,9.43
2018-06-30T08:47:59.191Z,8.80
2018-06-30T08:50:27.461Z,11.07
2018-06-30T08:52:55.908Z,11.47
2018-06-30T08:55:24.690Z,10.67
2018-06-30T08:57:52.893Z,11.93
2018-06-30T09:00:21.145Z,10.77
2018-06-30T09:02:49.302Z,10.20
2018-06-30T09:05:17.451Z,12.60
2018-06-30T09:07:45.607Z,13.70
2018-06-30T09:10:13.785Z,7.97
2018-06-30T09:12:44.164Z,7.30
2018-06-30T09:15:12.726Z,8.00
2018-06-30T09:17:40.900Z,10.33
2018-06-30T09:20:09.050Z,7.67
2018-06-30T09:22:37.215Z,8.60
2018-06-30T09:25:05.376Z,8.20
2018-06-30T09:27:33.555Z,6.73
2018-06-30T09:30:01.746Z,7.20
2018-06-30T09:32:30.233Z,9.57
2018-06-30T09:34:58.395Z,7.83
2018-06-30T09:37:27.484Z,7.87
2018-06-30T09:39:55.654Z,9.00
2018-06-30T09:42:23.793Z,7.17
2018-06-30T09:44:51.957Z,8.13
2018-06-30T09:47:20.102Z,6.57
2018-06-30T09:49:48.269Z,8.90
2018-06-30T09:52:16.565Z,8.40
2018-06-30T09:54:44.856Z,12.60
2018-06-30T09:57:13.013Z,6.83
2018-06-30T09:59:41.181Z,7.27
2018-06-30T10:02:10.758Z,8.83
2018-06-30T10:04:38.908Z,7.73
2018-06-30T10:07:07.876Z,8.47
2018-06-30T10:09:36.046Z,9.63
2018-06-30T10:12:04.220Z,4.97
2018-06-30T10:14:32.544Z,5.97
2018-06-30T10:17:00.696Z,5.20
2018-06-30T10:19:29.211Z,5.40
2018-06-30T10:21:57.285Z,6.73
2018-06-30T10:24:25.440Z,4.90
2018-06-30T10:26:53.580Z,5.93
2018-06-30T10:29:21.807Z,7.50
2018-06-30T10:31:49.961Z,5.13
2018-06-30T10:34:18.676Z,6.53
2018-06-30T10:36:46.940Z,6.10
2018-06-30T10:39:15.305Z,4.80
2018-06-30T10:41:43.463Z,5.07
2018-06-30T10:44:11.624Z,5.73
2018-06-30T10:46:39.785Z,4.03
2018-06-30T10:49:08.388Z,4.57
2018-06-30T10:51:36.531Z,6.13
2018-06-30T10:54:04.789Z,5.20
2018-06-30T10:56:32.948Z,4.57
2018-06-30T10:59:01.501Z,4.43
2018-06-30T11:01:29.651Z,5.20
2018-06-30T11:03:57.972Z,5.57
2018-06-30T11:06:26.089Z,7.97
2018-06-30T11:08:54.339Z,4.30
2018-06-30T11:11:23.139Z,4.37
2018-06-30T11:13:51.409Z,4.97
2018-06-30T11:16:19.589Z,3.70
2018-06-30T11:18:47.740Z,4.93
2018-06-30T11:21:15.901Z,4.67
2018-06-30T11:23:44.058Z,4.97
2018-06-30T11:26:12.202Z,5.00
2018-06-30T11:28:40.351Z,5.47
2018-06-30T11:31:08.525Z,4.50
2018-06-30T11:33:37.031Z,5.53
2018-06-30T11:36:06.865Z,6.73
2018-06-30T11:38:35.910Z,4.77
2018-06-30T11:41:04.609Z,4.43
2018-06-30T11:43:35.450Z,3.83
2018-06-30T11:46:03.625Z,6.13
2018-06-30T11:48:31.774Z,4.37
2018-06-30T11:50:59.932Z,4.83
2018-06-30T11:53:28.271Z,4.70
2018-06-30T11:55:56.482Z,3.67
2018-06-30T11:58:24.959Z,4.77
2018-06-30T12:00:53.137Z,3.53
2018-06-30T12:03:21.328Z,3.57
2018-06-30T12:05:49.461Z,5.27
2018-06-30T12:08:17.612Z,3.73
2018-06-30T12:10:45.766Z,3.70
2018-06-30T12:13:14.471Z,3.50
2018-06-30T12:15:42.838Z,4.27
2018-06-30T12:18:11.209Z,4.53
2018-06-30T12:20:39.364Z,6.27
2018-06-30T12:23:07.534Z,5.17
2018-06-30T12:25:35.802Z,3.83
2018-06-30T12:28:04.286Z,5.07
2018-06-30T12:30:32.744Z,4.10
2018-06-30T12:33:01.025Z,3.43
2018-06-30T12:35:29.187Z,4.13
2018-06-30T12:37:57.430Z,4.47
2018-06-30T12:40:25.673Z,4.03
2018-06-30T12:42:53.868Z,4.23
2018-06-30T12:45:22.032Z,4.13
2018-06-30T12:47:50.462Z,3.80
2018-06-30T12:50:18.716Z,4.13
2018-06-30T12:52:46.868Z,4.70
2018-06-30T12:55:15.084Z,4.40
2018-06-30T12:57:43.258Z,3.63
2018-06-30T13:00:12.104Z,3.53
2018-06-30T13:02:40.309Z,3.20
2018-06-30T13:05:09.396Z,4.27
2018-06-30T13:07:37.547Z,4.53
2018-06-30T13:10:05.763Z,4.40
2018-06-30T13:12:33.913Z,4.90
2018-06-30T13:15:02.085Z,5.10
2018-06-30T13:17:30.257Z,4.27
2018-06-30T13:19:58.417Z,7.30
2018-06-30T13:22:26.562Z,6.20
2018-06-30T13:24:54.717Z,3.70
2018-06-30T13:27:22.861Z,3.50
2018-06-30T13:29:51.015Z,3.80
2018-06-30T13:32:19.169Z,3.50
2018-06-30T13:34:47.309Z,6.10
2018-06-30T13:37:15.455Z,4.20
2018-06-30T13:39:43.731Z,4.50
2018-06-30T13:42:11.900Z,4.07
2018-06-30T13:44:40.052Z,3.90
2018-06-30T13:47:08.213Z,3.70
2018-06-30T13:49:36.514Z,6.13
2018-06-30T13:52:04.668Z,4.07
2018-06-30T13:54:32.810Z,7.73
2018-06-30T13:57:00.965Z,7.33
2018-06-30T13:59:29.124Z,5.47
2018-06-30T14:01:57.659Z,4.23
2018-06-30T14:04:25.864Z,4.63
2018-06-30T14:06:54.025Z,4.20
2018-06-30T14:09:22.177Z,6.17
2018-06-30T14:11:50.336Z,4.40
2018-06-30T14:14:18.899Z,3.87
2018-06-30T14:16:47.052Z,4.33
2018-06-30T14:19:15.216Z,3.90
2018-06-30T14:21:43.380Z,4.13
2018-06-30T14:24:11.542Z,4.40
2018-06-30T14:26:39.696Z,4.20
2018-06-30T14:29:07.829Z,3.87
2018-06-30T14:31:36.455Z,3.50
2018-06-30T14:34:04.666Z,4.10
2018-06-30T14:36:32.873Z,5.20
2018-06-30T14:39:01.033Z,5.17
2018-06-30T14:41:29.184Z,5.40
2018-06-30T14:43:57.377Z,3.43
2018-06-30T14:46:25.906Z,3.60
2018-06-30T14:48:54.057Z,5.97
2018-06-30T14:51:22.215Z,3.17
2018-06-30T14:53:50.372Z,3.60
2018-06-30T14:56:18.930Z,2.73
2018-06-30T14:58:47.100Z,5.00
2018-06-30T15:01:15.261Z,3.90
2018-06-30T15:03:43.408Z,4.03
2018-06-30T15:06:11.569Z,4.03
2018-06-30T15:08:39.729Z,3.60
2018-06-30T15:11:07.889Z,4.63
2018-06-30T15:13:36.055Z,3.70
2018-06-30T15:16:04.252Z,3.80
2018-06-30T15:18:32.412Z,4.10
2018-06-30T15:21:00.565Z,3.87
2018-06-30T15:23:28.727Z,3.70
2018-06-30T15:25:56.884Z,3.70
2018-06-30T15:28:25.036Z,3.30
2018-06-30T15:30:53.416Z,6.70
2018-06-30T15:35:46.788Z,4.27
2018-06-30T15:38:15.332Z,6.67
2018-06-30T15:40:43.481Z,4.43
2018-06-30T15:43:11.660Z,4.90
2018-06-30T15:45:40.069Z,5.00
2018-06-30T15:48:08.248Z,6.43
2018-06-30T15:50:36.396Z,8.00
2018-06-30T15:53:04.568Z,6.90
2018-06-30T15:55:32.730Z,5.80
2018-06-30T15:58:00.922Z,6.20
2018-06-30T16:00:29.076Z,4.30
2018-06-30T16:02:57.241Z,6.93
2018-06-30T16:05:25.186Z,5.93
2018-06-30T16:07:53.417Z,5.80
2018-06-30T16:10:21.590Z,4.47
2018-06-30T16:12:49.902Z,5.90
2018-06-30T16:15:18.067Z,5.17
2018-06-30T16:17:46.465Z,5.70
2018-06-30T16:20:14.640Z,7.60
2018-06-30T16:22:42.840Z,4.63
2018-06-30T16:25:10.997Z,5.80
2018-06-30T16:27:39.156Z,6.30
2018-06-30T16:30:07.982Z,4.90
2018-06-30T16:32:36.124Z,6.47
2018-06-30T16:35:06.841Z,6.20
2018-06-30T16:37:36.389Z,4.97
2018-06-30T16:40:04.604Z,4.30
2018-06-30T16:42:32.794Z,4.77
2018-06-30T16:45:00.945Z,5.67
2018-06-30T16:47:29.110Z,4.13
2018-06-30T16:49:57.641Z,5.63
2018-06-30T16:52:26.096Z,5.43
2018-06-30T16:54:54.326Z,7.87
2018-06-30T16:57:22.536Z,6.23
2018-06-30T16:59:50.710Z,4.53
2018-06-30T17:02:18.898Z,4.57
2018-06-30T17:04:47.136Z,5.27
2018-06-30T17:07:16.905Z,3.80
2018-06-30T17:09:45.056Z,4.67
2018-06-30T17:12:13.213Z,4.53
2018-06-30T17:14:41.376Z,5.10
2018-06-30T17:17:09.527Z,3.33
2018-06-30T17:19:37.672Z,3.30
2018-06-30T17:24:25.941Z,3.53
2018-06-30T17:26:54.513Z,4.70
2018-06-30T17:29:22.511Z,3.30
2018-06-30T17:31:50.692Z,4.73
2018-06-30T17:34:18.837Z,3.87
2018-06-30T17:36:47.041Z,4.27
2018-06-30T17:39:15.204Z,7.87
2018-06-30T17:41:43.344Z,3.43
2018-06-30T17:44:12.225Z,3.27
2018-06-30T17:46:40.360Z,3.13
2018-06-30T17:49:08.525Z,3.43
2018-06-30T17:51:36.489Z,2.70
2018-06-30T17:54:04.995Z,2.70
2018-06-30T17:56:33.144Z,2.97
2018-06-30T17:59:01.310Z,3.47
2018-06-30T18:01:29.462Z,7.60
2018-06-30T18:03:57.628Z,3.43
2018-06-30T18:06:25.839Z,3.17
2018-06-30T18:08:53.973Z,1.83
2018-06-30T18:11:22.159Z,4.03
2018-06-30T18:13:50.393Z,3.13
2018-06-30T18:16:18.552Z,2.13
2018-06-30T18:18:46.852Z,3.83
2018-06-30T18:21:15.009Z,1.80
2018-06-30T18:23:43.182Z,2.83
2018-06-30T18:26:11.684Z,6.30
2018-06-30T18:28:39.901Z,2.57
2018-06-30T18:31:08.060Z,4.10
2018-06-30T18:33:36.229Z,2.40
2018-06-30T18:36:04.496Z,3.33
2018-06-30T18:38:32.668Z,2.43
2018-06-30T18:41:02.479Z,2.63
2018-06-30T18:43:32.706Z,1.60
2018-06-30T18:46:02.603Z,3.03
2018-06-30T18:48:32.929Z,2.83
2018-06-30T18:51:01.123Z,2.57
2018-06-30T18:53:29.293Z,4.37
2018-06-30T18:55:57.544Z,1.83
2018-06-30T18:58:25.755Z,2.37
2018-06-30T19:00:53.877Z,2.87
2018-06-30T19:03:22.040Z,2.83
2018-06-30T19:05:50.161Z,1.93
2018-06-30T19:08:20.616Z,3.80
2018-06-30T19:10:51.187Z,1.43
2018-06-30T19:13:19.348Z,2.57
2018-06-30T19:15:47.540Z,1.67
2018-06-30T19:18:15.737Z,2.60
2018-06-30T19:20:43.894Z,1.40
2018-06-30T19:23:15.031Z,1.33
2018-06-30T19:25:45.430Z,1.10
2018-06-30T19:28:15.492Z,1.90
2018-06-30T19:30:45.603Z,1.50
2018-06-30T19:33:15.923Z,1.73
2018-06-30T19:35:45.614Z,1.70
2018-06-30T19:38:15.398Z,1.13
2018-06-30T19:40:44.479Z,1.60
2018-06-30T19:43:13.970Z,1.43
2018-06-30T19:45:44.173Z,1.93
2018-06-30T19:48:14.064Z,1.50
2018-06-30T19:50:44.102Z,1.20
2018-06-30T19:53:28.280Z,2.50
2018-06-30T19:55:58.772Z,2.97
2018-06-30T19:58:29.164Z,1.20
2018-06-30T20:00:59.262Z,1.07
2018-06-30T20:03:29.131Z,2.03
2018-06-30T20:05:57.285Z,1.30
2018-06-30T20:08:27.717Z,1.10
2018-06-30T20:10:55.874Z,1.30
2018-06-30T20:13:24.050Z,1.50
2018-06-30T20:15:52.208Z,1.67
2018-06-30T20:18:20.369Z,1.40
2018-06-30T20:20:48.569Z,1.20
2018-06-30T20:23:16.718Z,1.10
2018-06-30T20:25:44.898Z,0.90
2018-06-30T20:28:13.045Z,1.37
2018-06-30T20:30:41.209Z,1.23
2018-06-30T20:33:09.477Z,1.10
2018-06-30T20:35:37.647Z,1.67
2018-06-30T20:38:05.802Z,1.00
2018-06-30T20:40:33.972Z,1.43
2018-06-30T20:43:02.130Z,1.17
2018-06-30T20:45:30.438Z,1.10
2018-06-30T20:47:58.893Z,1.37
2018-06-30T20:50:27.084Z,1.57
2018-06-30T20:52:55.289Z,1.00
2018-06-30T20:55:23.570Z,1.80
2018-06-30T20:57:51.786Z,0.73
2018-06-30T21:00:19.952Z,2.17
2018-06-30T21:02:48.144Z,1.63
2018-06-30T21:05:16.301Z,1.17
2018-06-30T21:07:44.456Z,0.80
2018-06-30T21:10:12.757Z,1.53
2018-06-30T21:12:40.915Z,0.70
2018-06-30T21:15:09.740Z,1.03
2018-06-30T21:17:38.046Z,0.73
2018-06-30T21:20:06.456Z,0.43
2018-06-30T21:22:34.621Z,1.10
2018-06-30T21:25:03.502Z,0.60
2018-06-30T21:27:31.852Z,0.50
2018-06-30T21:30:00.033Z,1.10
2018-06-30T21:32:28.183Z,0.77
2018-06-30T21:34:56.357Z,0.67
2018-06-30T21:37:24.517Z,0.90
2018-06-30T21:39:52.438Z,1.87
2018-06-30T21:42:20.659Z,0.80
2018-06-30T21:44:48.816Z,0.63
2018-06-30T21:47:16.986Z,1.57
2018-06-30T21:49:45.737Z,0.60
2018-06-30T21:52:13.949Z,0.80
2018-06-30T21:54:42.092Z,1.10
2018-06-30T21:57:10.264Z,0.60
2018-06-30T21:59:38.480Z,0.30
2018-06-30T22:02:08.640Z,0.83
2018-06-30T22:04:37.149Z,0.60
2018-06-30T22:07:05.375Z,0.60
2018-06-30T22:09:33.572Z,1.20
2018-06-30T22:12:01.724Z,1.30
2018-06-30T22:14:31.845Z,0.77
2018-06-30T22:17:00.136Z,0.53
2018-06-30T22:19:28.292Z,0.57
2018-06-30T22:21:56.649Z,0.80
2018-06-30T22:24:24.820Z,0.77
2018-06-30T22:26:53.004Z,0.60
2018-06-30T22:29:21.212Z,0.77
2018-06-30T22:31:49.375Z,0.57
2018-06-30T22:34:17.521Z,1.13
2018-06-30T22:36:45.681Z,0.47
2018-06-30T22:39:13.988Z,0.90
2018-06-30T22:41:42.148Z,1.83
2018-06-30T22:44:10.309Z,1.63
2018-06-30T22:46:38.463Z,0.60
2018-06-30T22:49:06.615Z,2.07
2018-06-30T22:51:34.772Z,1.73
2018-06-30T22:54:02.932Z,1.57
2018-06-30T22:56:31.091Z,0.80
2018-06-30T22:58:59.265Z,0.40
2018-06-30T23:01:27.815Z,0.47
2018-06-30T23:03:56.048Z,0.70
2018-06-30T23:06:24.236Z,1.97
2018-06-30T23:08:53.258Z,0.67
2018-06-30T23:11:21.992Z,0.70
2018-06-30T23:13:50.215Z,0.33
2018-06-30T23:16:18.414Z,0.43
2018-06-30T23:18:46.552Z,0.70
2018-06-30T23:21:14.733Z,1.77
2018-06-30T23:23:42.905Z,0.83
2018-06-30T23:26:11.073Z,0.27
2018-06-30T23:28:39.257Z,0.40
2018-06-30T23:31:07.453Z,0.50
2018-06-30T23:33:35.606Z,0.30
2018-06-30T23:36:03.776Z,0.33
2018-06-30T23:38:31.924Z,0.40
2018-06-30T23:41:00.371Z,0.60
2018-06-30T23:43:28.537Z,0.50
2018-06-30T23:45:56.699Z,0.97
2018-06-30T23:48:24.869Z,0.30
2018-06-30T23:50:53.092Z,0.40
2018-06-30T23:53:21.241Z,0.60
2018-06-30T23:55:49.405Z,1.03
2018-06-30T23:58:17.459Z,0.67
